Time;durP1;ratioP1;P1;durP2;ratioP2;P2;SDS_P1;SDS_P2;PMS_P1;PMS_P2;Temp;Humidity;BMP_temperature;BMP_pressure;BME280_temperature;BME280_humidity;BME280_pressure;Samples;Min_cycle;Max_cycle;Signal;HPM_P1;HPM_P2
2021/09/01 00:00:08;;;;;;;15.52;6.70;;;15.50;99.90;;;;;;5021358;28;20206;-73
2021/09/01 00:02:35;;;;;;;17.05;6.53;;;15.50;99.90;;;;;;5029440;28;20212;-73
2021/09/01 00:05:02;;;;;;;13.90;6.22;;;15.60;99.90;;;;;;5028069;28;20772;-74
2021/09/01 00:07:29;;;;;;;16.15;6.82;;;15.50;99.90;;;;;;5028791;28;20203;-74
2021/09/01 00:09:56;;;;;;;15.75;6.72;;;15.60;99.90;;;;;;5026455;28;20223;-74
2021/09/01 00:12:23;;;;;;;16.17;7.25;;;15.50;99.90;;;;;;5030954;28;20316;-74
2021/09/01 00:14:50;;;;;;;18.90;6.72;;;15.60;99.90;;;;;;5027048;28;20200;-74
2021/09/01 00:17:18;;;;;;;12.82;6.00;;;15.60;99.90;;;;;;5029632;28;20199;-74
2021/09/01 00:19:45;;;;;;;15.48;6.53;;;15.50;99.90;;;;;;5029197;28;20202;-74
2021/09/01 00:22:12;;;;;;;16.90;7.30;;;15.50;99.90;;;;;;5025396;28;20207;-73
2021/09/01 00:24:38;;;;;;;16.40;6.27;;;15.50;99.90;;;;;;5027059;28;20204;-74
2021/09/01 00:27:05;;;;;;;19.92;6.50;;;15.60;99.90;;;;;;5027750;28;20569;-74
2021/09/01 00:29:35;;;;;;;15.02;6.35;;;15.70;99.90;;;;;;5029333;28;20223;-73
2021/09/01 00:32:02;;;;;;;17.80;6.95;;;15.60;99.90;;;;;;5026253;28;20250;-74
2021/09/01 00:34:30;;;;;;;15.80;7.00;;;15.60;99.90;;;;;;5025191;28;20211;-73
2021/09/01 00:36:57;;;;;;;15.73;5.85;;;15.60;99.90;;;;;;5027239;28;20207;-74
2021/09/01 00:39:24;;;;;;;13.82;5.68;;;15.50;99.90;;;;;;5027544;28;20200;-73
2021/09/01 00:41:51;;;;;;;15.25;6.60;;;15.60;99.90;;;;;;5026144;28;20204;-74
2021/09/01 00:44:22;;;;;;;15.10;6.47;;;15.60;99.90;;;;;;5026803;28;20658;-74
2021/09/01 00:46:50;;;;;;;16.83;6.68;;;15.60;99.90;;;;;;5028339;28;20253;-73
2021/09/01 00:49:17;;;;;;;14.33;6.27;;;15.50;99.90;;;;;;5023432;28;21205;-74
2021/09/01 00:51:46;;;;;;;17.50;6.25;;;15.50;99.90;;;;;;5029595;28;20204;-74
2021/09/01 00:54:16;;;;;;;15.98;6.32;;;15.60;99.90;;;;;;5028861;28;20218;-73
2021/09/01 00:56:45;;;;;;;15.40;6.82;;;15.60;99.90;;;;;;5028493;28;20207;-74
2021/09/01 00:59:15;;;;;;;13.88;7.10;;;15.50;99.90;;;;;;5027406;28;20195;-73
2021/09/01 01:01:44;;;;;;;16.95;6.45;;;15.60;99.90;;;;;;5027998;28;20515;-74
2021/09/01 01:04:11;;;;;;;18.93;7.70;;;15.40;99.90;;;;;;5025105;28;20206;-73
2021/09/01 01:06:38;;;;;;;17.90;6.63;;;15.50;99.90;;;;;;5025748;28;20210;-74
2021/09/01 01:09:06;;;;;;;18.70;7.22;;;15.50;99.90;;;;;;5029522;28;20225;-73
2021/09/01 01:11:33;;;;;;;16.83;7.13;;;15.40;99.90;;;;;;5030376;28;20585;-74
2021/09/01 01:14:00;;;;;;;11.93;6.27;;;15.40;99.90;;;;;;5037389;28;20214;-74
2021/09/01 01:16:28;;;;;;;19.07;6.97;;;15.40;99.90;;;;;;5036707;28;20572;-73
2021/09/01 01:18:55;;;;;;;19.05;7.63;;;15.40;99.90;;;;;;5029122;28;20204;-74
2021/09/01 01:21:24;;;;;;;20.00;7.43;;;15.40;99.90;;;;;;5029334;28;20605;-73
2021/09/01 01:23:52;;;;;;;24.02;7.80;;;15.30;99.90;;;;;;5037469;28;20732;-73
2021/09/01 01:26:22;;;;;;;17.00;7.70;;;15.30;99.90;;;;;;5035602;28;20203;-73
2021/09/01 01:28:53;;;;;;;14.15;7.38;;;15.30;99.90;;;;;;5038839;28;20570;-73
2021/09/01 01:31:21;;;;;;;18.40;7.17;;;15.30;99.90;;;;;;5046079;28;20579;-73
2021/09/01 01:33:49;;;;;;;19.98;8.05;;;15.30;99.90;;;;;;5036747;28;20646;-74
2021/09/01 01:36:16;;;;;;;18.07;7.00;;;15.30;99.90;;;;;;5040144;28;20199;-73
2021/09/01 01:38:44;;;;;;;16.73;7.90;;;15.30;99.90;;;;;;5044311;28;20649;-73
2021/09/01 01:41:11;;;;;;;16.17;6.90;;;15.40;99.90;;;;;;5037079;28;20203;-74
2021/09/01 01:43:44;;;;;;;16.63;7.60;;;15.30;99.90;;;;;;5048013;28;20203;-74
2021/09/01 01:46:11;;;;;;;18.10;6.65;;;15.30;99.90;;;;;;5047859;28;20203;-74
2021/09/01 01:48:38;;;;;;;18.15;6.95;;;15.30;99.90;;;;;;5037275;28;20245;-73
2021/09/01 01:51:05;;;;;;;15.87;7.30;;;15.40;99.90;;;;;;5044218;28;20569;-73
2021/09/01 01:53:32;;;;;;;13.87;7.13;;;15.50;99.90;;;;;;5039264;28;20195;-69
2021/09/01 01:55:59;;;;;;;20.48;7.63;;;15.50;99.90;;;;;;5038639;28;20626;-69
2021/09/01 01:58:26;;;;;;;18.27;7.27;;;15.40;99.90;;;;;;5045156;28;20672;-69
2021/09/01 02:00:54;;;;;;;20.10;7.70;;;15.40;99.90;;;;;;5037306;28;20242;-69
2021/09/01 02:03:21;;;;;;;18.23;7.97;;;15.40;99.90;;;;;;5032401;28;20230;-69
2021/09/01 02:05:48;;;;;;;18.63;7.47;;;15.30;99.90;;;;;;5029083;28;20206;-70
2021/09/01 02:08:15;;;;;;;21.90;7.68;;;15.30;99.90;;;;;;5019182;28;20662;-69
2021/09/01 02:10:42;;;;;;;16.77;7.77;;;15.30;99.90;;;;;;5033620;28;20224;-69
2021/09/01 02:13:09;;;;;;;15.75;6.65;;;15.40;99.90;;;;;;5035655;28;20199;-69
2021/09/01 02:15:36;;;;;;;17.92;7.20;;;15.40;99.90;;;;;;5033626;28;20207;-69
2021/09/01 02:18:04;;;;;;;17.88;7.25;;;15.40;99.90;;;;;;5028996;28;20570;-69
2021/09/01 02:20:31;;;;;;;18.90;7.70;;;15.30;99.90;;;;;;5032486;28;20233;-69
2021/09/01 02:22:58;;;;;;;20.23;8.05;;;15.40;99.90;;;;;;5031975;28;20226;-69
2021/09/01 02:25:26;;;;;;;18.00;7.03;;;15.40;99.90;;;;;;5029376;28;20207;-73
2021/09/01 02:27:54;;;;;;;17.92;7.63;;;15.40;99.90;;;;;;5023977;28;20204;-69
2021/09/01 02:30:22;;;;;;;21.75;7.72;;;15.40;99.90;;;;;;5020100;28;20224;-69
2021/09/01 02:32:49;;;;;;;18.40;7.07;;;15.30;99.90;;;;;;5030111;28;20238;-69
2021/09/01 02:35:18;;;;;;;22.02;7.80;;;15.30;99.90;;;;;;5029470;28;20583;-69
2021/09/01 02:37:45;;;;;;;16.17;6.85;;;15.30;99.90;;;;;;5030738;28;20265;-73
2021/09/01 02:40:13;;;;;;;16.33;7.40;;;15.40;99.90;;;;;;5030630;28;20559;-73
2021/09/01 02:42:40;;;;;;;18.90;7.50;;;15.40;99.90;;;;;;5020325;28;20212;-73
2021/09/01 02:45:08;;;;;;;16.07;7.50;;;15.20;99.90;;;;;;5024189;28;20636;-73
2021/09/01 02:47:35;;;;;;;18.67;7.50;;;15.30;99.90;;;;;;5023517;28;20721;-74
2021/09/01 02:50:02;;;;;;;17.20;7.07;;;15.40;99.90;;;;;;5026976;28;20278;-73
2021/09/01 02:52:31;;;;;;;17.40;7.37;;;15.40;99.90;;;;;;5023293;28;20216;-74
2021/09/01 02:54:58;;;;;;;16.17;6.60;;;15.20;99.90;;;;;;5022262;28;20239;-73
2021/09/01 02:57:25;;;;;;;20.17;6.60;;;15.30;99.90;;;;;;5034650;28;20231;-73
2021/09/01 02:59:52;;;;;;;18.03;7.10;;;15.30;99.90;;;;;;5017445;28;20281;-70
2021/09/01 03:02:19;;;;;;;17.88;7.70;;;15.30;99.90;;;;;;5032976;28;20196;-73
2021/09/01 03:04:46;;;;;;;16.20;7.35;;;15.30;99.90;;;;;;5028288;28;20311;-73
2021/09/01 03:07:13;;;;;;;18.80;7.60;;;15.30;99.90;;;;;;5027315;28;20288;-73
2021/09/01 03:09:41;;;;;;;22.20;8.25;;;15.30;99.90;;;;;;5030215;28;20220;-73
2021/09/01 03:12:08;;;;;;;15.17;6.87;;;15.40;99.90;;;;;;5031110;28;20204;-73
2021/09/01 03:14:35;;;;;;;15.97;6.63;;;15.30;99.90;;;;;;5016059;28;20235;-73
2021/09/01 03:17:02;;;;;;;14.53;6.70;;;15.30;99.90;;;;;;5014266;28;20204;-70
2021/09/01 03:19:29;;;;;;;13.33;6.60;;;15.30;99.90;;;;;;5024904;28;20239;-69
2021/09/01 03:21:56;;;;;;;18.10;7.27;;;15.30;99.90;;;;;;5022815;28;20901;-69
2021/09/01 03:24:23;;;;;;;18.77;7.07;;;15.30;99.90;;;;;;5023318;28;20201;-69
2021/09/01 03:26:51;;;;;;;13.63;6.93;;;15.20;99.90;;;;;;5036202;28;20230;-73
2021/09/01 03:29:18;;;;;;;16.57;7.07;;;15.30;99.90;;;;;;5036378;28;20195;-73
2021/09/01 03:31:45;;;;;;;19.02;8.43;;;15.30;99.90;;;;;;5027860;28;20206;-70
2021/09/01 03:34:12;;;;;;;15.13;7.05;;;15.30;99.90;;;;;;5028379;28;20204;-70
2021/09/01 03:36:40;;;;;;;15.47;7.20;;;15.30;99.90;;;;;;5030513;28;20675;-69
2021/09/01 03:39:06;;;;;;;17.17;7.00;;;15.30;99.90;;;;;;5019585;28;20204;-70
2021/09/01 03:41:33;;;;;;;19.17;7.47;;;15.20;99.90;;;;;;5021112;28;20577;-69
2021/09/01 03:44:02;;;;;;;22.77;8.13;;;15.30;99.90;;;;;;5028822;28;20215;-69
2021/09/01 03:46:29;;;;;;;19.38;9.60;;;15.20;99.90;;;;;;5030139;28;20203;-69
2021/09/01 03:48:56;;;;;;;13.13;7.30;;;15.30;99.90;;;;;;5026313;28;20662;-70
2021/09/01 03:51:23;;;;;;;20.80;7.70;;;15.20;99.90;;;;;;5024927;28;20223;-70
2021/09/01 03:53:50;;;;;;;16.35;7.88;;;15.30;99.90;;;;;;5025687;28;20200;-69
2021/09/01 03:56:17;;;;;;;18.53;8.33;;;15.20;99.90;;;;;;5031495;28;20258;-69
2021/09/01 03:58:44;;;;;;;21.77;10.82;;;15.20;99.90;;;;;;5026488;28;20247;-70
2021/09/01 04:01:12;;;;;;;20.10;8.03;;;15.20;99.90;;;;;;5026150;28;20277;-69
2021/09/01 04:03:39;;;;;;;16.60;8.02;;;15.10;99.90;;;;;;5027393;28;20204;-70
2021/09/01 04:06:06;;;;;;;13.50;7.20;;;15.20;99.90;;;;;;5030083;28;20214;-70
2021/09/01 04:08:33;;;;;;;13.93;6.97;;;15.20;99.90;;;;;;5030082;28;20658;-70
2021/09/01 04:11:00;;;;;;;16.50;7.83;;;15.20;99.90;;;;;;5029220;28;20219;-70
2021/09/01 04:13:27;;;;;;;17.93;7.60;;;15.20;99.90;;;;;;5023203;28;20203;-70
2021/09/01 04:15:54;;;;;;;18.30;7.53;;;15.20;99.90;;;;;;5022197;28;20207;-70
2021/09/01 04:18:22;;;;;;;13.47;7.03;;;15.20;99.90;;;;;;5017022;28;20748;-70
2021/09/01 04:20:49;;;;;;;15.30;7.13;;;15.20;99.90;;;;;;5019907;28;20254;-70
2021/09/01 04:23:16;;;;;;;20.47;6.97;;;15.20;99.90;;;;;;5027781;28;20219;-70
2021/09/01 04:25:43;;;;;;;17.08;6.43;;;15.20;99.90;;;;;;5031239;28;20210;-70
2021/09/01 04:28:10;;;;;;;14.63;6.20;;;15.10;99.90;;;;;;5030529;28;20210;-70
2021/09/01 04:30:37;;;;;;;17.43;6.83;;;15.10;99.90;;;;;;5031616;28;20233;-70
2021/09/01 04:33:03;;;;;;;16.60;6.28;;;15.20;99.90;;;;;;5029570;28;20214;-69
2021/09/01 04:35:32;;;;;;;13.47;6.07;;;15.10;99.90;;;;;;5030209;28;20215;-73
2021/09/01 04:37:58;;;;;;;16.45;6.15;;;15.20;99.90;;;;;;5029753;28;20229;-73
2021/09/01 04:40:25;;;;;;;13.50;6.22;;;15.20;99.90;;;;;;5030357;28;20196;-71
2021/09/01 04:42:52;;;;;;;17.07;6.63;;;15.10;99.90;;;;;;5026968;28;20716;-71
2021/09/01 04:45:19;;;;;;;13.20;6.25;;;15.20;99.90;;;;;;5024568;28;20196;-71
2021/09/01 04:47:46;;;;;;;15.07;5.87;;;15.20;99.90;;;;;;5026770;28;20212;-71
2021/09/01 04:50:14;;;;;;;13.53;6.13;;;15.10;99.90;;;;;;5026425;28;20693;-71
2021/09/01 04:52:42;;;;;;;13.10;5.83;;;15.10;99.90;;;;;;5028020;28;20204;-71
2021/09/01 04:55:10;;;;;;;14.80;5.97;;;15.20;99.90;;;;;;5025356;28;20257;-71
2021/09/01 04:57:37;;;;;;;13.80;6.03;;;15.10;99.90;;;;;;5028778;28;20708;-71
2021/09/01 05:00:06;;;;;;;16.03;7.07;;;15.20;99.90;;;;;;5028421;28;20203;-71
2021/09/01 05:02:33;;;;;;;15.23;5.50;;;15.20;99.90;;;;;;5024478;28;20200;-71
2021/09/01 05:05:00;;;;;;;17.23;6.90;;;15.20;99.90;;;;;;5022345;28;20257;-71
2021/09/01 05:07:27;;;;;;;16.80;6.93;;;15.20;99.90;;;;;;5017162;28;20622;-71
2021/09/01 05:09:55;;;;;;;11.80;5.93;;;15.20;99.90;;;;;;5027334;28;20203;-71
2021/09/01 05:12:26;;;;;;;14.20;6.32;;;15.30;99.90;;;;;;5027637;28;20207;-71
2021/09/01 05:14:53;;;;;;;12.80;6.00;;;15.20;99.90;;;;;;5021773;28;20689;-71
2021/09/01 05:17:20;;;;;;;18.90;6.40;;;15.30;99.90;;;;;;5022505;28;20204;-71
2021/09/01 05:19:47;;;;;;;17.42;6.57;;;15.30;99.90;;;;;;5019590;28;20211;-71
2021/09/01 05:22:18;;;;;;;13.30;5.70;;;15.30;99.90;;;;;;5021641;28;20215;-71
2021/09/01 05:24:58;;;;;;;13.38;6.57;;;15.20;99.90;;;;;;5028053;28;20204;-71
2021/09/01 05:27:28;;;;;;;13.40;5.93;;;15.30;99.90;;;;;;5027690;28;20550;-71
2021/09/01 05:29:55;;;;;;;15.95;6.72;;;15.30;99.90;;;;;;5018423;28;20203;-71
2021/09/01 05:32:23;;;;;;;15.83;6.77;;;15.30;99.90;;;;;;5023242;28;20207;-71
2021/09/01 05:34:52;;;;;;;12.63;6.53;;;15.30;99.90;;;;;;5011821;28;20266;-71
2021/09/01 05:37:19;;;;;;;14.83;6.50;;;15.30;99.90;;;;;;5027672;28;20822;-71
2021/09/01 05:39:49;;;;;;;15.03;6.83;;;15.20;99.90;;;;;;5027052;28;20254;-71
2021/09/01 05:42:18;;;;;;;16.97;6.90;;;15.30;99.90;;;;;;5025374;28;20464;-71
2021/09/01 05:44:47;;;;;;;16.80;6.40;;;15.30;99.90;;;;;;5027437;28;20208;-71
2021/09/01 05:47:16;;;;;;;16.35;6.68;;;15.30;99.90;;;;;;5028272;28;20265;-71
2021/09/01 05:49:45;;;;;;;12.65;6.18;;;15.30;99.90;;;;;;5027246;28;20207;-71
2021/09/01 05:52:13;;;;;;;16.45;6.25;;;15.40;99.90;;;;;;5025991;28;20228;-71
2021/09/01 05:54:41;;;;;;;16.40;6.00;;;15.40;99.90;;;;;;5026035;28;20262;-71
2021/09/01 05:57:10;;;;;;;15.37;6.57;;;15.30;99.90;;;;;;5027955;28;20721;-70
2021/09/01 05:59:44;;;;;;;14.48;6.00;;;15.40;99.90;;;;;;5030424;28;20546;-71
2021/09/01 06:02:19;;;;;;;15.83;6.90;;;15.50;99.90;;;;;;5029286;28;20401;-71
2021/09/01 06:04:47;;;;;;;15.85;7.20;;;15.60;99.90;;;;;;5026945;28;20195;-71
2021/09/01 06:07:16;;;;;;;15.27;6.97;;;15.60;99.90;;;;;;5021427;28;20204;-71
2021/09/01 06:09:45;;;;;;;13.77;6.30;;;15.60;99.90;;;;;;5021628;28;20274;-71
2021/09/01 06:12:20;;;;;;;19.07;6.67;;;15.50;99.90;;;;;;5032370;28;20609;-71
2021/09/01 06:14:48;;;;;;;17.57;6.63;;;15.60;99.90;;;;;;5015970;28;20285;-71
2021/09/01 06:17:16;;;;;;;20.48;7.15;;;15.60;99.90;;;;;;5017919;28;20286;-71
2021/09/01 06:19:43;;;;;;;19.67;7.07;;;15.70;99.90;;;;;;5030580;28;20204;-71
2021/09/01 06:22:11;;;;;;;14.75;6.15;;;15.70;99.90;;;;;;5034823;28;20262;-71
2021/09/01 06:24:38;;;;;;;15.52;6.70;;;15.70;99.90;;;;;;5018709;28;20211;-70
2021/09/01 06:27:05;;;;;;;11.20;5.88;;;15.70;99.90;;;;;;5026404;28;20200;-71
2021/09/01 06:29:32;;;;;;;16.70;6.60;;;15.80;99.90;;;;;;5035508;28;20640;-71
2021/09/01 06:31:59;;;;;;;14.30;5.78;;;15.80;99.90;;;;;;5035490;28;20223;-71
2021/09/01 06:34:27;;;;;;;11.77;5.68;;;15.90;99.90;;;;;;5023195;28;20208;-71
2021/09/01 06:36:54;;;;;;;12.18;5.43;;;15.90;99.90;;;;;;5027706;28;20199;-71
2021/09/01 06:39:21;;;;;;;10.77;5.72;;;15.90;99.90;;;;;;5034471;28;20264;-71
2021/09/01 06:41:48;;;;;;;18.55;6.30;;;15.80;99.90;;;;;;5030592;28;20207;-71
2021/09/01 06:44:15;;;;;;;17.17;6.97;;;15.90;99.90;;;;;;5030382;28;20199;-71
2021/09/01 06:46:42;;;;;;;15.45;5.93;;;15.90;99.90;;;;;;5027287;28;20257;-71
2021/09/01 06:49:09;;;;;;;14.80;5.47;;;15.90;99.90;;;;;;5022177;28;20200;-71
2021/09/01 06:51:38;;;;;;;14.30;6.63;;;15.90;99.90;;;;;;5027287;28;20285;-71
2021/09/01 06:54:05;;;;;;;13.50;6.28;;;16.00;99.90;;;;;;5030813;28;20611;-71
2021/09/01 06:56:32;;;;;;;15.45;6.47;;;15.90;99.90;;;;;;5029618;28;20605;-71
2021/09/01 06:58:59;;;;;;;17.58;6.47;;;16.00;99.90;;;;;;5029652;28;20232;-71
2021/09/01 07:01:26;;;;;;;13.50;6.30;;;16.00;99.90;;;;;;5029478;28;20246;-71
2021/09/01 07:03:55;;;;;;;18.05;6.70;;;16.00;99.90;;;;;;5027759;28;20212;-71
2021/09/01 07:06:22;;;;;;;13.25;6.00;;;16.10;99.90;;;;;;5024555;28;20625;-71
2021/09/01 07:08:51;;;;;;;10.88;4.93;;;16.00;99.90;;;;;;5030579;28;20204;-71
2021/09/01 07:11:18;;;;;;;15.15;5.95;;;16.10;99.90;;;;;;5020041;28;20232;-71
2021/09/01 07:13:45;;;;;;;16.50;6.43;;;16.20;99.90;;;;;;5022036;28;20204;-71
2021/09/01 07:16:14;;;;;;;14.30;5.80;;;16.20;99.90;;;;;;5019807;28;20576;-71
2021/09/01 07:18:41;;;;;;;15.02;6.32;;;16.30;99.90;;;;;;5028035;28;20202;-71
2021/09/01 07:21:08;;;;;;;16.50;6.38;;;16.40;99.90;;;;;;5022501;28;20204;-71
2021/09/01 07:23:35;;;;;;;15.77;6.32;;;16.40;99.90;;;;;;5029297;28;20623;-71
2021/09/01 07:26:04;;;;;;;13.35;5.93;;;16.40;99.90;;;;;;5031519;28;20243;-71
2021/09/01 07:28:31;;;;;;;13.98;6.20;;;16.60;99.90;;;;;;5023892;28;20285;-71
2021/09/01 07:30:58;;;;;;;13.30;5.80;;;16.60;99.90;;;;;;5026526;28;20231;-71
2021/09/01 07:33:25;;;;;;;15.90;5.97;;;16.60;99.90;;;;;;5032113;28;20628;-71
2021/09/01 07:35:52;;;;;;;13.27;6.13;;;16.70;99.90;;;;;;5030507;28;20199;-71
2021/09/01 07:38:19;;;;;;;16.15;7.40;;;16.70;99.90;;;;;;5028912;28;20199;-71
2021/09/01 07:40:46;;;;;;;12.50;5.70;;;16.80;99.90;;;;;;5015734;28;20670;-73
2021/09/01 07:43:14;;;;;;;14.57;6.70;;;16.90;99.90;;;;;;5030391;28;20250;-73
2021/09/01 07:45:43;;;;;;;14.65;6.78;;;16.90;99.90;;;;;;5041668;28;20844;-73
2021/09/01 07:48:14;;;;;;;14.77;6.30;;;17.10;99.90;;;;;;5029365;28;20669;-73
2021/09/01 07:50:41;;;;;;;12.10;6.63;;;17.10;99.90;;;;;;5028445;28;20212;-73
2021/09/01 07:53:08;;;;;;;13.32;6.50;;;17.00;99.90;;;;;;5026686;28;20265;-73
2021/09/01 07:55:35;;;;;;;13.98;6.53;;;16.90;99.90;;;;;;5025412;28;20203;-73
2021/09/01 07:58:02;;;;;;;17.90;7.15;;;17.00;99.90;;;;;;5020174;28;20277;-73
2021/09/01 08:00:31;;;;;;;15.35;6.28;;;17.10;99.90;;;;;;5023232;28;20203;-73
2021/09/01 08:02:58;;;;;;;14.65;6.63;;;17.20;99.90;;;;;;5016075;28;20209;-73
2021/09/01 08:05:25;;;;;;;13.10;6.57;;;17.30;99.90;;;;;;5022455;28;20203;-73
2021/09/01 08:07:52;;;;;;;17.92;7.25;;;17.50;99.90;;;;;;5025169;28;20203;-74
2021/09/01 08:10:19;;;;;;;12.65;7.05;;;17.50;99.90;;;;;;5026847;28;20200;-73
2021/09/01 08:12:46;;;;;;;17.23;6.90;;;17.40;99.90;;;;;;5022871;28;20330;-73
2021/09/01 08:15:13;;;;;;;17.35;6.78;;;17.50;99.90;;;;;;5032802;28;20212;-73
2021/09/01 08:17:42;;;;;;;15.30;6.38;;;17.70;99.90;;;;;;5028836;28;20199;-73
2021/09/01 08:20:10;;;;;;;15.77;6.88;;;17.80;99.90;;;;;;5015917;28;20207;-73
2021/09/01 08:22:37;;;;;;;16.15;7.15;;;17.80;99.90;;;;;;5013005;28;20275;-73
2021/09/01 08:25:05;;;;;;;14.35;7.32;;;17.90;99.90;;;;;;5017305;28;20232;-73
2021/09/01 08:27:32;;;;;;;13.40;7.07;;;18.00;99.90;;;;;;5029875;28;20204;-73
2021/09/01 08:29:59;;;;;;;17.52;7.68;;;17.90;99.90;;;;;;5033064;28;20700;-73
2021/09/01 08:32:26;;;;;;;14.50;6.60;;;17.80;99.90;;;;;;5028403;28;20270;-73
2021/09/01 08:34:55;;;;;;;18.13;7.22;;;18.00;99.90;;;;;;5025589;28;20203;-73
2021/09/01 08:37:22;;;;;;;16.90;7.45;;;18.10;99.90;;;;;;5027202;28;20456;-73
2021/09/01 08:39:49;;;;;;;16.75;8.77;;;18.10;99.90;;;;;;5042235;28;20202;-73
2021/09/01 08:42:18;;;;;;;15.75;7.35;;;18.00;99.90;;;;;;5022167;28;20195;-73
2021/09/01 08:44:45;;;;;;;14.35;7.32;;;18.20;99.90;;;;;;5017941;28;20204;-73
2021/09/01 08:47:15;;;;;;;18.02;8.32;;;18.10;99.90;;;;;;5017361;28;20744;-73
2021/09/01 08:49:46;;;;;;;14.25;8.00;;;18.00;99.90;;;;;;5018372;28;20212;-73
2021/09/01 08:52:15;;;;;;;17.65;7.95;;;18.20;99.90;;;;;;5018593;28;20269;-74
2021/09/01 08:54:42;;;;;;;14.13;8.15;;;18.20;99.90;;;;;;5021766;28;20215;-73
2021/09/01 08:57:09;;;;;;;17.42;8.25;;;18.40;99.90;;;;;;5023851;28;20212;-73
2021/09/01 08:59:36;;;;;;;17.58;8.35;;;18.40;99.90;;;;;;5021001;28;20364;-73
2021/09/01 09:02:04;;;;;;;14.77;7.97;;;18.40;99.90;;;;;;5019935;28;20208;-73
2021/09/01 09:04:34;;;;;;;15.50;7.63;;;18.50;99.90;;;;;;5020017;28;20278;-73
2021/09/01 09:07:02;;;;;;;14.15;7.75;;;18.60;99.90;;;;;;5015503;28;20691;-73
2021/09/01 09:09:32;;;;;;;14.07;7.93;;;18.40;99.90;;;;;;5011994;28;20485;-74
2021/09/01 09:12:01;;;;;;;11.90;7.25;;;18.50;99.90;;;;;;5006853;28;20317;-73
2021/09/01 09:14:30;;;;;;;16.33;7.38;;;18.50;99.90;;;;;;5010588;28;20203;-73
2021/09/01 09:17:05;;;;;;;15.38;7.13;;;18.60;99.90;;;;;;5016630;28;20203;-73
2021/09/01 09:19:43;;;;;;;13.30;6.40;;;18.70;99.90;;;;;;5009464;28;20207;-73
2021/09/01 09:22:11;;;;;;;11.95;6.28;;;18.60;99.90;;;;;;5018045;28;20763;-73
2021/09/01 09:24:39;;;;;;;15.15;6.70;;;18.40;99.90;;;;;;5018987;28;20215;-73
2021/09/01 09:27:07;;;;;;;14.25;6.40;;;18.30;99.90;;;;;;5014399;28;20235;-73
2021/09/01 09:29:34;;;;;;;18.48;6.63;;;18.40;99.90;;;;;;5027191;28;20207;-73
2021/09/01 09:32:03;;;;;;;17.42;6.90;;;18.30;99.90;;;;;;5020255;28;20230;-73
2021/09/01 09:34:36;;;;;;;11.38;6.07;;;18.30;99.90;;;;;;5023943;28;20211;-73
2021/09/01 09:37:05;;;;;;;17.80;6.25;;;18.40;99.90;;;;;;5036971;28;20634;-73
2021/09/01 09:39:45;;;;;;;15.68;6.65;;;18.50;99.90;;;;;;5025040;28;20282;-72
2021/09/01 09:42:13;;;;;;;14.90;6.55;;;18.50;99.90;;;;;;5018455;28;20485;-73
2021/09/01 09:44:40;;;;;;;15.20;6.93;;;18.60;99.90;;;;;;5024100;28;20650;-72
2021/09/01 09:47:08;;;;;;;12.63;5.97;;;18.50;99.90;;;;;;5038815;28;20238;-73
2021/09/01 09:49:35;;;;;;;14.07;6.13;;;18.80;99.90;;;;;;5024590;28;20666;-72
2021/09/01 09:52:14;;;;;;;11.13;6.13;;;18.70;99.90;;;;;;5016528;28;20281;-73
2021/09/01 09:54:41;;;;;;;12.35;6.32;;;18.60;99.90;;;;;;5015887;28;20297;-73
2021/09/01 09:57:12;;;;;;;13.88;6.40;;;19.00;99.90;;;;;;5023399;28;20550;-72
2021/09/01 09:59:39;;;;;;;14.23;6.53;;;19.00;99.90;;;;;;5025076;28;20302;-72
2021/09/01 10:02:07;;;;;;;13.82;6.25;;;18.90;99.90;;;;;;5035891;28;20211;-72
2021/09/01 10:04:34;;;;;;;14.48;6.43;;;19.40;99.90;;;;;;5023888;28;20246;-73
2021/09/01 10:07:01;;;;;;;11.38;5.47;;;20.10;99.90;;;;;;5017599;28;20611;-72
2021/09/01 10:09:28;;;;;;;13.00;6.13;;;20.10;99.90;;;;;;5013364;28;20679;-73
2021/09/01 10:11:58;;;;;;;11.98;5.63;;;20.10;99.90;;;;;;5017681;28;20223;-73
2021/09/01 10:14:27;;;;;;;11.55;5.82;;;20.20;99.90;;;;;;5024882;28;20207;-73
2021/09/01 10:16:59;;;;;;;11.80;6.07;;;20.20;99.90;;;;;;5014291;28;20287;-73
2021/09/01 10:19:30;;;;;;;14.98;6.22;;;20.20;99.90;;;;;;5019563;28;20809;-73
2021/09/01 10:22:01;;;;;;;8.90;5.22;;;20.10;99.90;;;;;;5013207;28;20207;-72
2021/09/01 10:24:32;;;;;;;11.75;6.10;;;19.40;99.90;;;;;;5021729;28;20270;-73
2021/09/01 10:27:05;;;;;;;11.27;5.82;;;19.90;99.90;;;;;;5024098;28;20277;-72
2021/09/01 10:29:42;;;;;;;10.73;5.65;;;20.00;99.90;;;;;;5022971;28;20219;-73
2021/09/01 10:32:26;;;;;;;12.40;6.00;;;20.60;99.90;;;;;;5024331;28;20549;-73
2021/09/01 10:35:30;;;;;;;11.32;5.53;;;20.40;99.90;;;;;;5018717;28;20262;-73
2021/09/01 10:38:04;;;;;;;9.82;4.93;;;20.20;99.90;;;;;;5011224;28;20207;-73
2021/09/01 10:41:04;;;;;;;11.15;5.72;;;20.40;99.90;;;;;;5021018;28;20585;-72
2021/09/01 10:43:32;;;;;;;9.98;5.38;;;20.40;99.90;;;;;;5022330;28;20200;-73
2021/09/01 10:46:00;;;;;;;12.00;5.82;;;20.60;99.90;;;;;;5021105;28;20242;-73
2021/09/01 10:48:27;;;;;;;10.77;5.40;;;20.20;99.90;;;;;;5030588;28;20200;-74
2021/09/01 10:50:55;;;;;;;10.43;5.63;;;20.10;99.90;;;;;;5019740;28;20587;-73
2021/09/01 10:53:24;;;;;;;11.77;5.20;;;20.10;99.90;;;;;;5029959;28;20650;-73
2021/09/01 10:56:00;;;;;;;13.55;5.40;;;20.70;99.90;;;;;;5030607;28;20234;-73
2021/09/01 10:58:40;;;;;;;12.15;5.90;;;20.50;99.90;;;;;;5019751;28;20646;-73
2021/09/01 11:01:17;;;;;;;8.18;4.50;;;20.20;99.90;;;;;;5030246;28;20209;-73
2021/09/01 11:03:50;;;;;;;10.38;5.15;;;20.50;99.90;;;;;;5038544;28;20207;-73
2021/09/01 11:06:27;;;;;;;12.77;5.55;;;21.10;99.90;;;;;;5027804;28;20216;-73
2021/09/01 11:09:02;;;;;;;13.70;5.70;;;21.10;99.90;;;;;;5014763;28;20200;-73
2021/09/01 11:11:54;;;;;;;9.55;5.93;;;21.20;99.90;;;;;;5013568;28;20398;-73
2021/09/01 11:14:37;;;;;;;12.88;5.57;;;20.60;99.90;;;;;;5025498;28;20203;-73
2021/09/01 11:17:11;;;;;;;11.50;6.00;;;20.30;99.90;;;;;;5018821;28;20218;-73
2021/09/01 11:19:40;;;;;;;9.23;5.43;;;20.40;99.90;;;;;;5022467;28;20596;-73
2021/09/01 11:22:08;;;;;;;12.00;5.38;;;20.80;99.90;;;;;;5020147;28;20274;-73
2021/09/01 11:24:48;;;;;;;10.68;5.38;;;20.90;99.90;;;;;;5029579;28;20447;-73
2021/09/01 11:27:16;;;;;;;11.40;5.30;;;21.60;99.90;;;;;;5030291;28;20203;-74
2021/09/01 11:29:43;;;;;;;12.82;5.05;;;22.00;99.90;;;;;;5030858;28;20243;-70
2021/09/01 11:32:16;;;;;;;9.77;5.03;;;22.40;99.90;;;;;;5043549;28;20706;-70
2021/09/01 11:34:43;;;;;;;13.32;5.10;;;22.50;99.90;;;;;;5030086;28;20203;-70
2021/09/01 11:37:11;;;;;;;12.15;5.30;;;22.30;99.90;;;;;;5027627;28;20716;-70
2021/09/01 11:39:46;;;;;;;9.77;5.03;;;22.70;99.90;;;;;;5029218;28;20210;-70
2021/09/01 11:42:14;;;;;;;10.55;5.47;;;21.60;99.90;;;;;;5030902;28;20272;-70
2021/09/01 11:44:42;;;;;;;12.27;6.05;;;21.70;99.90;;;;;;5029089;28;20642;-70
2021/09/01 11:47:16;;;;;;;10.07;5.63;;;22.00;99.90;;;;;;5029708;28;20234;-70
2021/09/01 11:49:43;;;;;;;12.48;5.72;;;22.40;99.90;;;;;;5029303;28;20257;-71
2021/09/01 11:52:11;;;;;;;10.85;5.63;;;22.30;99.90;;;;;;5024876;28;20251;-70
2021/09/01 11:54:40;;;;;;;11.85;5.65;;;22.00;99.90;;;;;;5031236;28;20207;-70
2021/09/01 11:57:07;;;;;;;14.25;5.93;;;22.30;99.90;;;;;;5018951;28;20197;-70
2021/09/01 11:59:36;;;;;;;11.50;6.47;;;22.50;99.90;;;;;;5025739;28;20201;-70
2021/09/01 12:02:06;;;;;;;9.75;5.32;;;22.40;99.90;;;;;;5029345;28;20606;-70
2021/09/01 12:04:42;;;;;;;12.77;6.03;;;22.20;99.90;;;;;;5029395;28;20650;-70
2021/09/01 12:07:10;;;;;;;9.20;4.93;;;22.60;99.90;;;;;;5023137;28;20195;-70
2021/09/01 12:09:37;;;;;;;8.68;4.70;;;22.40;99.90;;;;;;5030116;28;20629;-70
2021/09/01 12:12:06;;;;;;;8.95;5.15;;;22.70;99.90;;;;;;5024683;28;20261;-70
2021/09/01 12:14:34;;;;;;;9.80;4.70;;;22.50;99.90;;;;;;5024315;28;20203;-70
2021/09/01 12:17:18;;;;;;;10.75;5.30;;;22.60;99.90;;;;;;5019046;28;20615;-70
2021/09/01 12:19:49;;;;;;;10.30;4.85;;;22.50;99.90;;;;;;5022920;28;20204;-70
2021/09/01 12:22:29;;;;;;;9.77;5.35;;;23.10;99.90;;;;;;5025171;28;20577;-70
2021/09/01 12:25:02;;;;;;;8.52;5.13;;;22.90;99.90;;;;;;5029292;28;20287;-70
2021/09/01 12:27:29;;;;;;;10.85;5.30;;;22.80;99.90;;;;;;5027776;28;20203;-70
2021/09/01 12:29:56;;;;;;;9.57;5.20;;;22.70;99.90;;;;;;5028517;28;20203;-70
2021/09/01 12:32:24;;;;;;;9.80;5.22;;;23.00;99.90;;;;;;5028437;28;20234;-70
2021/09/01 12:34:56;;;;;;;10.45;5.00;;;23.10;99.90;;;;;;5027443;28;20305;-70
2021/09/01 12:37:25;;;;;;;7.90;4.75;;;23.30;99.90;;;;;;5028464;28;20206;-70
2021/09/01 12:39:54;;;;;;;10.73;4.97;;;22.90;99.90;;;;;;5025930;28;20203;-70
2021/09/01 12:42:30;;;;;;;7.72;5.05;;;23.30;99.90;;;;;;5016489;28;20216;-70
2021/09/01 12:44:59;;;;;;;10.48;5.20;;;23.00;99.90;;;;;;5021739;28;20239;-69